Terminal Aerodrome Forecast
Issued by NWS

Home | Current Version | Previous Version | Graphics & Text | Print | Product List | Glossary On
Versions: 1 2 3 4 5 6 7 8 9 10 11 12 13 14 15 16 17 18 19 20
000
FTUS43 KGRB 041136
TAFATW
TAF
KATW 041136Z 0412/0512 VRB03KT 6SM BR SCT100 BKN250
     FM041500 05004KT 6SM HZ SCT035
     FM041900 11006KT P6SM BKN035
     FM050200 15003KT 6SM BR SCT050=

USA.gov is the U.S. government's official web portal to all federal, state and local government web resources and services.